ZCL weather

General Leobardo C. Ruiz International Airport
Zacatecas, Zacatecas, Mexico

Public forecast

Using degrees Celsius for public forecast. Weather courtesy of forecast.io.

Current aviation weather report (METAR) for General Leobardo C. Ruiz International Airport

Retrieved 2019/10/18 07:40 UTC (17 minutes ago):

MMZC 180740Z 00000KT 10SM BKN200 13/11 A3018 RMK 8/004

Aviation forecast (TAF) for General Leobardo C. Ruiz International Airport

Retrieved 2019/10/18 06:39 UTC (1 hour ago):

TAF MMZC 180538Z 1806/1912 25005KT P6SM SCT030 BKN250 TX23/1821Z TN13/1812Z FM181600 28010KT P6SM SCT030 SCT250 FM190200 34010KT P6SM SCT030 SCT100